sensor_id;sensor_type;location;lat;lon;timestamp;P1;durP1;ratioP1;P2;durP2;ratioP2
31182;SDS011;17813;0.000;0.000;2024-02-16T00:01:04;7.37;;;5.17;;
31182;SDS011;17813;0.000;0.000;2024-02-16T00:03:31;5.97;;;4.47;;
31182;SDS011;17813;0.000;0.000;2024-02-16T00:05:59;6.10;;;4.40;;
31182;SDS011;17813;0.000;0.000;2024-02-16T00:08:26;6.90;;;4.20;;
31182;SDS011;17813;0.000;0.000;2024-02-16T00:10:54;5.53;;;4.77;;
31182;SDS011;17813;0.000;0.000;2024-02-16T00:13:23;6.20;;;4.70;;
31182;SDS011;17813;0.000;0.000;2024-02-16T00:15:50;6.87;;;4.93;;
31182;SDS011;17813;0.000;0.000;2024-02-16T00:18:17;5.60;;;4.60;;
31182;SDS011;17813;0.000;0.000;2024-02-16T00:20:44;8.23;;;4.50;;
31182;SDS011;17813;0.000;0.000;2024-02-16T00:23:12;5.23;;;4.03;;
31182;SDS011;17813;0.000;0.000;2024-02-16T00:25:39;5.63;;;4.10;;
31182;SDS011;17813;0.000;0.000;2024-02-16T00:30:34;4.83;;;3.83;;
31182;SDS011;17813;0.000;0.000;2024-02-16T00:33:03;3.90;;;3.50;;
31182;SDS011;17813;0.000;0.000;2024-02-16T00:35:30;3.93;;;3.33;;
31182;SDS011;17813;0.000;0.000;2024-02-16T00:38:00;4.17;;;3.33;;
31182;SDS011;17813;0.000;0.000;2024-02-16T00:40:27;4.50;;;3.40;;
31182;SDS011;17813;0.000;0.000;2024-02-16T00:42:56;3.87;;;3.47;;
31182;SDS011;17813;0.000;0.000;2024-02-16T00:45:23;4.97;;;3.30;;
31182;SDS011;17813;0.000;0.000;2024-02-16T00:47:50;4.30;;;3.20;;
31182;SDS011;17813;0.000;0.000;2024-02-16T00:50:19;3.67;;;3.20;;
31182;SDS011;17813;0.000;0.000;2024-02-16T00:52:46;3.60;;;3.23;;
31182;SDS011;17813;0.000;0.000;2024-02-16T00:55:14;4.33;;;3.00;;
31182;SDS011;17813;0.000;0.000;2024-02-16T00:57:40;4.23;;;3.00;;
31182;SDS011;17813;0.000;0.000;2024-02-16T01:00:07;3.83;;;2.90;;
31182;SDS011;17813;0.000;0.000;2024-02-16T01:02:35;3.20;;;2.90;;
31182;SDS011;17813;0.000;0.000;2024-02-16T01:05:02;3.20;;;2.90;;
31182;SDS011;17813;0.000;0.000;2024-02-16T01:07:29;3.37;;;3.07;;
31182;SDS011;17813;0.000;0.000;2024-02-16T01:09:57;5.07;;;3.20;;
31182;SDS011;17813;0.000;0.000;2024-02-16T01:12:26;3.00;;;2.67;;
31182;SDS011;17813;0.000;0.000;2024-02-16T01:14:54;3.00;;;2.70;;
31182;SDS011;17813;0.000;0.000;2024-02-16T01:17:24;2.73;;;2.30;;
31182;SDS011;17813;0.000;0.000;2024-02-16T01:19:51;2.73;;;2.40;;
31182;SDS011;17813;0.000;0.000;2024-02-16T01:22:18;5.47;;;2.60;;
31182;SDS011;17813;0.000;0.000;2024-02-16T01:24:46;4.60;;;2.70;;
31182;SDS011;17813;0.000;0.000;2024-02-16T01:27:14;3.80;;;2.50;;
31182;SDS011;17813;0.000;0.000;2024-02-16T01:29:44;3.30;;;2.60;;
31182;SDS011;17813;0.000;0.000;2024-02-16T01:32:10;3.10;;;2.30;;
31182;SDS011;17813;0.000;0.000;2024-02-16T01:34:39;3.97;;;2.40;;
31182;SDS011;17813;0.000;0.000;2024-02-16T01:37:06;5.53;;;2.60;;
31182;SDS011;17813;0.000;0.000;2024-02-16T01:39:34;2.90;;;2.23;;
31182;SDS011;17813;0.000;0.000;2024-02-16T01:42:03;3.07;;;2.30;;
31182;SDS011;17813;0.000;0.000;2024-02-16T01:44:31;2.80;;;2.20;;
31182;SDS011;17813;0.000;0.000;2024-02-16T01:46:59;3.67;;;2.33;;
31182;SDS011;17813;0.000;0.000;2024-02-16T01:49:27;2.30;;;2.10;;
31182;SDS011;17813;0.000;0.000;2024-02-16T01:51:54;3.50;;;2.57;;
31182;SDS011;17813;0.000;0.000;2024-02-16T01:54:23;2.50;;;2.30;;
31182;SDS011;17813;0.000;0.000;2024-02-16T01:56:51;3.60;;;2.50;;
31182;SDS011;17813;0.000;0.000;2024-02-16T01:59:20;2.87;;;2.57;;
31182;SDS011;17813;0.000;0.000;2024-02-16T02:01:47;3.03;;;2.53;;
31182;SDS011;17813;0.000;0.000;2024-02-16T02:04:14;3.03;;;2.50;;
31182;SDS011;17813;0.000;0.000;2024-02-16T02:06:41;3.00;;;2.43;;
31182;SDS011;17813;0.000;0.000;2024-02-16T02:09:08;3.57;;;2.30;;
31182;SDS011;17813;0.000;0.000;2024-02-16T02:11:37;3.17;;;2.33;;
31182;SDS011;17813;0.000;0.000;2024-02-16T02:14:06;3.03;;;2.30;;
31182;SDS011;17813;0.000;0.000;2024-02-16T02:16:33;2.83;;;2.33;;
31182;SDS011;17813;0.000;0.000;2024-02-16T02:19:02;2.67;;;2.30;;
31182;SDS011;17813;0.000;0.000;2024-02-16T02:21:30;3.10;;;2.30;;
31182;SDS011;17813;0.000;0.000;2024-02-16T02:23:57;2.77;;;2.30;;
31182;SDS011;17813;0.000;0.000;2024-02-16T02:26:24;3.30;;;2.40;;
31182;SDS011;17813;0.000;0.000;2024-02-16T02:28:52;3.23;;;2.70;;
31182;SDS011;17813;0.000;0.000;2024-02-16T02:31:18;2.40;;;2.20;;
31182;SDS011;17813;0.000;0.000;2024-02-16T02:33:46;3.27;;;2.37;;
31182;SDS011;17813;0.000;0.000;2024-02-16T02:36:13;2.80;;;2.27;;
31182;SDS011;17813;0.000;0.000;2024-02-16T02:38:40;2.40;;;2.20;;
31182;SDS011;17813;0.000;0.000;2024-02-16T02:41:06;2.40;;;2.20;;
31182;SDS011;17813;0.000;0.000;2024-02-16T02:43:33;3.83;;;2.47;;
31182;SDS011;17813;0.000;0.000;2024-02-16T02:46:00;2.90;;;2.60;;
31182;SDS011;17813;0.000;0.000;2024-02-16T02:48:27;4.77;;;2.43;;
31182;SDS011;17813;0.000;0.000;2024-02-16T02:50:54;3.03;;;2.33;;
31182;SDS011;17813;0.000;0.000;2024-02-16T02:53:20;2.40;;;2.20;;
31182;SDS011;17813;0.000;0.000;2024-02-16T02:55:47;3.00;;;2.40;;
31182;SDS011;17813;0.000;0.000;2024-02-16T02:58:14;2.63;;;2.40;;
31182;SDS011;17813;0.000;0.000;2024-02-16T03:00:41;3.17;;;2.40;;
31182;SDS011;17813;0.000;0.000;2024-02-16T03:03:08;2.80;;;2.37;;
31182;SDS011;17813;0.000;0.000;2024-02-16T03:05:35;2.77;;;2.47;;
31182;SDS011;17813;0.000;0.000;2024-02-16T03:08:05;3.03;;;2.47;;
31182;SDS011;17813;0.000;0.000;2024-02-16T03:10:32;5.37;;;2.77;;
31182;SDS011;17813;0.000;0.000;2024-02-16T03:13:01;5.00;;;3.13;;
31182;SDS011;17813;0.000;0.000;2024-02-16T03:15:28;4.23;;;3.30;;
31182;SDS011;17813;0.000;0.000;2024-02-16T03:17:57;6.53;;;3.20;;
31182;SDS011;17813;0.000;0.000;2024-02-16T03:20:24;6.20;;;3.37;;
31182;SDS011;17813;0.000;0.000;2024-02-16T03:22:51;3.63;;;3.27;;
31182;SDS011;17813;0.000;0.000;2024-02-16T03:25:19;5.97;;;3.33;;
31182;SDS011;17813;0.000;0.000;2024-02-16T03:27:47;3.80;;;2.97;;
31182;SDS011;17813;0.000;0.000;2024-02-16T03:30:14;3.13;;;2.77;;
31182;SDS011;17813;0.000;0.000;2024-02-16T03:32:41;3.10;;;2.80;;
31182;SDS011;17813;0.000;0.000;2024-02-16T03:35:08;3.10;;;2.80;;
31182;SDS011;17813;0.000;0.000;2024-02-16T03:37:36;3.80;;;2.83;;
31182;SDS011;17813;0.000;0.000;2024-02-16T03:40:05;4.73;;;3.03;;
31182;SDS011;17813;0.000;0.000;2024-02-16T03:42:33;5.53;;;2.83;;
31182;SDS011;17813;0.000;0.000;2024-02-16T03:45:02;3.20;;;2.70;;
31182;SDS011;17813;0.000;0.000;2024-02-16T03:47:29;4.17;;;2.70;;
31182;SDS011;17813;0.000;0.000;2024-02-16T03:49:56;3.73;;;2.70;;
31182;SDS011;17813;0.000;0.000;2024-02-16T03:52:23;4.83;;;2.90;;
31182;SDS011;17813;0.000;0.000;2024-02-16T03:54:51;6.00;;;2.90;;
31182;SDS011;17813;0.000;0.000;2024-02-16T03:57:21;3.40;;;2.90;;
31182;SDS011;17813;0.000;0.000;2024-02-16T03:59:47;2.87;;;2.63;;
31182;SDS011;17813;0.000;0.000;2024-02-16T04:02:15;3.10;;;2.80;;
31182;SDS011;17813;0.000;0.000;2024-02-16T04:04:43;3.03;;;2.70;;
31182;SDS011;17813;0.000;0.000;2024-02-16T04:07:10;2.63;;;2.27;;
31182;SDS011;17813;0.000;0.000;2024-02-16T04:09:39;3.50;;;2.90;;
31182;SDS011;17813;0.000;0.000;2024-02-16T04:12:06;5.77;;;3.07;;
31182;SDS011;17813;0.000;0.000;2024-02-16T04:14:34;3.07;;;2.73;;
31182;SDS011;17813;0.000;0.000;2024-02-16T04:17:02;3.17;;;2.70;;
31182;SDS011;17813;0.000;0.000;2024-02-16T04:19:31;3.83;;;2.30;;
31182;SDS011;17813;0.000;0.000;2024-02-16T04:21:59;2.93;;;2.63;;
31182;SDS011;17813;0.000;0.000;2024-02-16T04:24:27;3.07;;;2.77;;
31182;SDS011;17813;0.000;0.000;2024-02-16T04:26:58;2.93;;;2.70;;
31182;SDS011;17813;0.000;0.000;2024-02-16T04:29:25;6.03;;;3.20;;
31182;SDS011;17813;0.000;0.000;2024-02-16T04:31:53;4.53;;;2.80;;
31182;SDS011;17813;0.000;0.000;2024-02-16T04:34:20;3.43;;;2.80;;
31182;SDS011;17813;0.000;0.000;2024-02-16T04:36:49;4.07;;;2.40;;
31182;SDS011;17813;0.000;0.000;2024-02-16T04:39:17;3.43;;;2.53;;
31182;SDS011;17813;0.000;0.000;2024-02-16T04:41:45;3.00;;;2.60;;
31182;SDS011;17813;0.000;0.000;2024-02-16T04:44:12;3.07;;;2.43;;
31182;SDS011;17813;0.000;0.000;2024-02-16T04:46:38;3.23;;;2.63;;
31182;SDS011;17813;0.000;0.000;2024-02-16T04:49:05;3.10;;;2.50;;
31182;SDS011;17813;0.000;0.000;2024-02-16T04:51:32;3.60;;;2.53;;
31182;SDS011;17813;0.000;0.000;2024-02-16T04:54:00;3.70;;;2.63;;
31182;SDS011;17813;0.000;0.000;2024-02-16T04:56:27;3.40;;;2.60;;
31182;SDS011;17813;0.000;0.000;2024-02-16T04:58:55;2.80;;;2.43;;
31182;SDS011;17813;0.000;0.000;2024-02-16T05:01:22;3.33;;;2.40;;
31182;SDS011;17813;0.000;0.000;2024-02-16T05:03:50;3.43;;;2.80;;
31182;SDS011;17813;0.000;0.000;2024-02-16T05:06:17;4.83;;;2.57;;
31182;SDS011;17813;0.000;0.000;2024-02-16T05:08:45;4.63;;;2.63;;
31182;SDS011;17813;0.000;0.000;2024-02-16T05:11:13;4.63;;;2.70;;
31182;SDS011;17813;0.000;0.000;2024-02-16T05:13:40;2.93;;;2.40;;
31182;SDS011;17813;0.000;0.000;2024-02-16T05:16:09;3.10;;;2.80;;
31182;SDS011;17813;0.000;0.000;2024-02-16T05:18:37;3.70;;;2.80;;
31182;SDS011;17813;0.000;0.000;2024-02-16T05:21:04;4.00;;;2.63;;
31182;SDS011;17813;0.000;0.000;2024-02-16T05:23:32;3.53;;;3.00;;
31182;SDS011;17813;0.000;0.000;2024-02-16T05:25:59;3.33;;;2.80;;
31182;SDS011;17813;0.000;0.000;2024-02-16T05:28:28;3.70;;;3.30;;
31182;SDS011;17813;0.000;0.000;2024-02-16T05:31:02;5.53;;;3.20;;
31182;SDS011;17813;0.000;0.000;2024-02-16T05:33:41;4.03;;;3.23;;
31182;SDS011;17813;0.000;0.000;2024-02-16T05:36:11;3.37;;;3.00;;
31182;SDS011;17813;0.000;0.000;2024-02-16T05:38:39;3.73;;;3.40;;
31182;SDS011;17813;0.000;0.000;2024-02-16T05:41:09;4.03;;;3.30;;
31182;SDS011;17813;0.000;0.000;2024-02-16T05:43:38;4.07;;;3.67;;
31182;SDS011;17813;0.000;0.000;2024-02-16T05:46:06;4.17;;;3.60;;
31182;SDS011;17813;0.000;0.000;2024-02-16T05:48:37;3.60;;;3.30;;
31182;SDS011;17813;0.000;0.000;2024-02-16T05:51:06;3.40;;;3.10;;
31182;SDS011;17813;0.000;0.000;2024-02-16T05:53:34;3.20;;;2.90;;
31182;SDS011;17813;0.000;0.000;2024-02-16T05:56:01;3.73;;;3.43;;
31182;SDS011;17813;0.000;0.000;2024-02-16T05:58:28;4.20;;;3.07;;
31182;SDS011;17813;0.000;0.000;2024-02-16T06:00:56;3.93;;;2.93;;
31182;SDS011;17813;0.000;0.000;2024-02-16T06:03:24;3.73;;;3.20;;
31182;SDS011;17813;0.000;0.000;2024-02-16T06:05:52;3.50;;;2.70;;
31182;SDS011;17813;0.000;0.000;2024-02-16T06:08:19;3.10;;;2.80;;
31182;SDS011;17813;0.000;0.000;2024-02-16T06:10:47;3.27;;;2.73;;
31182;SDS011;17813;0.000;0.000;2024-02-16T06:13:20;3.60;;;2.93;;
31182;SDS011;17813;0.000;0.000;2024-02-16T06:15:48;3.37;;;3.00;;
31182;SDS011;17813;0.000;0.000;2024-02-16T06:18:16;4.00;;;2.97;;
31182;SDS011;17813;0.000;0.000;2024-02-16T06:20:44;3.90;;;3.17;;
31182;SDS011;17813;0.000;0.000;2024-02-16T06:23:11;3.63;;;2.90;;
31182;SDS011;17813;0.000;0.000;2024-02-16T06:25:38;7.50;;;3.00;;
31182;SDS011;17813;0.000;0.000;2024-02-16T06:28:05;3.10;;;2.87;;
31182;SDS011;17813;0.000;0.000;2024-02-16T06:30:31;3.30;;;3.00;;
31182;SDS011;17813;0.000;0.000;2024-02-16T06:32:58;3.50;;;3.20;;
31182;SDS011;17813;0.000;0.000;2024-02-16T06:35:27;4.70;;;3.63;;
31182;SDS011;17813;0.000;0.000;2024-02-16T06:37:54;4.57;;;3.53;;
31182;SDS011;17813;0.000;0.000;2024-02-16T06:40:23;3.30;;;2.97;;
31182;SDS011;17813;0.000;0.000;2024-02-16T06:42:53;4.47;;;3.40;;
31182;SDS011;17813;0.000;0.000;2024-02-16T06:45:21;4.70;;;3.50;;
31182;SDS011;17813;0.000;0.000;2024-02-16T06:47:51;3.97;;;3.20;;
31182;SDS011;17813;0.000;0.000;2024-02-16T06:50:17;5.53;;;3.33;;
31182;SDS011;17813;0.000;0.000;2024-02-16T06:52:45;4.40;;;3.60;;
31182;SDS011;17813;0.000;0.000;2024-02-16T06:55:12;4.70;;;3.70;;
31182;SDS011;17813;0.000;0.000;2024-02-16T06:57:39;5.83;;;4.50;;
31182;SDS011;17813;0.000;0.000;2024-02-16T07:00:07;4.23;;;3.83;;
31182;SDS011;17813;0.000;0.000;2024-02-16T07:02:35;4.20;;;3.80;;
31182;SDS011;17813;0.000;0.000;2024-02-16T07:05:02;4.47;;;3.23;;
31182;SDS011;17813;0.000;0.000;2024-02-16T07:07:31;3.90;;;3.17;;
31182;SDS011;17813;0.000;0.000;2024-02-16T07:10:01;3.30;;;2.97;;
31182;SDS011;17813;0.000;0.000;2024-02-16T07:12:30;4.27;;;3.10;;
31182;SDS011;17813;0.000;0.000;2024-02-16T07:14:59;3.43;;;2.87;;
31182;SDS011;17813;0.000;0.000;2024-02-16T07:17:31;3.73;;;3.10;;
31182;SDS011;17813;0.000;0.000;2024-02-16T07:20:01;4.37;;;3.10;;
31182;SDS011;17813;0.000;0.000;2024-02-16T07:22:31;4.43;;;2.70;;
31182;SDS011;17813;0.000;0.000;2024-02-16T07:25:00;5.10;;;2.80;;
31182;SDS011;17813;0.000;0.000;2024-02-16T07:27:30;2.97;;;2.70;;
31182;SDS011;17813;0.000;0.000;2024-02-16T07:29:58;4.37;;;2.97;;
31182;SDS011;17813;0.000;0.000;2024-02-16T07:32:25;4.27;;;2.90;;
31182;SDS011;17813;0.000;0.000;2024-02-16T07:34:53;3.73;;;2.70;;
31182;SDS011;17813;0.000;0.000;2024-02-16T07:37:21;3.13;;;2.90;;
31182;SDS011;17813;0.000;0.000;2024-02-16T07:39:49;4.27;;;3.43;;
31182;SDS011;17813;0.000;0.000;2024-02-16T07:42:17;4.97;;;4.10;;
31182;SDS011;17813;0.000;0.000;2024-02-16T07:44:45;6.70;;;4.53;;
31182;SDS011;17813;0.000;0.000;2024-02-16T07:47:13;12.20;;;6.60;;
31182;SDS011;17813;0.000;0.000;2024-02-16T07:49:41;13.07;;;7.67;;
31182;SDS011;17813;0.000;0.000;2024-02-16T07:52:09;11.90;;;7.80;;
31182;SDS011;17813;0.000;0.000;2024-02-16T07:54:36;12.77;;;7.50;;
31182;SDS011;17813;0.000;0.000;2024-02-16T07:57:04;17.27;;;8.83;;
31182;SDS011;17813;0.000;0.000;2024-02-16T07:59:31;10.43;;;6.77;;
31182;SDS011;17813;0.000;0.000;2024-02-16T08:01:59;6.83;;;4.47;;
31182;SDS011;17813;0.000;0.000;2024-02-16T08:04:29;6.10;;;4.33;;
31182;SDS011;17813;0.000;0.000;2024-02-16T08:06:55;5.77;;;4.20;;
31182;SDS011;17813;0.000;0.000;2024-02-16T08:09:24;5.63;;;3.20;;
31182;SDS011;17813;0.000;0.000;2024-02-16T08:11:52;3.10;;;2.80;;
31182;SDS011;17813;0.000;0.000;2024-02-16T08:14:23;2.90;;;2.60;;
31182;SDS011;17813;0.000;0.000;2024-02-16T08:16:50;3.20;;;2.90;;
31182;SDS011;17813;0.000;0.000;2024-02-16T08:19:17;3.03;;;2.60;;
31182;SDS011;17813;0.000;0.000;2024-02-16T08:21:44;3.03;;;2.73;;
31182;SDS011;17813;0.000;0.000;2024-02-16T08:24:11;2.70;;;2.43;;
31182;SDS011;17813;0.000;0.000;2024-02-16T08:26:40;3.10;;;2.57;;
31182;SDS011;17813;0.000;0.000;2024-02-16T08:29:07;2.60;;;2.40;;
31182;SDS011;17813;0.000;0.000;2024-02-16T08:31:35;4.40;;;2.60;;
31182;SDS011;17813;0.000;0.000;2024-02-16T08:34:04;3.17;;;2.57;;
31182;SDS011;17813;0.000;0.000;2024-02-16T08:36:33;3.03;;;2.73;;
31182;SDS011;17813;0.000;0.000;2024-02-16T08:39:00;2.97;;;2.67;;
31182;SDS011;17813;0.000;0.000;2024-02-16T08:41:27;3.20;;;2.90;;
31182;SDS011;17813;0.000;0.000;2024-02-16T08:43:56;3.20;;;2.40;;
31182;SDS011;17813;0.000;0.000;2024-02-16T08:46:23;4.00;;;2.63;;
31182;SDS011;17813;0.000;0.000;2024-02-16T08:48:49;2.83;;;2.53;;
31182;SDS011;17813;0.000;0.000;2024-02-16T08:51:19;4.23;;;2.60;;
31182;SDS011;17813;0.000;0.000;2024-02-16T08:53:47;3.20;;;2.43;;
31182;SDS011;17813;0.000;0.000;2024-02-16T08:56:13;3.23;;;2.57;;
31182;SDS011;17813;0.000;0.000;2024-02-16T08:58:41;2.73;;;2.30;;
31182;SDS011;17813;0.000;0.000;2024-02-16T09:01:08;2.60;;;2.30;;
31182;SDS011;17813;0.000;0.000;2024-02-16T09:03:34;2.60;;;2.20;;
31182;SDS011;17813;0.000;0.000;2024-02-16T09:06:04;3.73;;;2.27;;
31182;SDS011;17813;0.000;0.000;2024-02-16T09:08:31;2.50;;;2.20;;
31182;SDS011;17813;0.000;0.000;2024-02-16T09:11:04;3.73;;;2.10;;
31182;SDS011;17813;0.000;0.000;2024-02-16T09:13:44;2.33;;;2.13;;
31182;SDS011;17813;0.000;0.000;2024-02-16T09:16:12;2.33;;;2.10;;
31182;SDS011;17813;0.000;0.000;2024-02-16T09:18:40;2.70;;;2.50;;
31182;SDS011;17813;0.000;0.000;2024-02-16T09:21:09;2.73;;;2.07;;
31182;SDS011;17813;0.000;0.000;2024-02-16T09:23:37;2.20;;;2.00;;
31182;SDS011;17813;0.000;0.000;2024-02-16T09:26:06;2.30;;;2.10;;
31182;SDS011;17813;0.000;0.000;2024-02-16T09:28:41;2.37;;;2.10;;
31182;SDS011;17813;0.000;0.000;2024-02-16T09:31:09;2.63;;;2.30;;
31182;SDS011;17813;0.000;0.000;2024-02-16T09:33:42;2.23;;;1.90;;
31182;SDS011;17813;0.000;0.000;2024-02-16T09:36:10;2.33;;;2.10;;
31182;SDS011;17813;0.000;0.000;2024-02-16T09:38:37;2.70;;;2.10;;
31182;SDS011;17813;0.000;0.000;2024-02-16T09:41:05;2.80;;;2.30;;
31182;SDS011;17813;0.000;0.000;2024-02-16T09:43:33;2.50;;;2.30;;
31182;SDS011;17813;0.000;0.000;2024-02-16T09:46:00;2.53;;;1.90;;
31182;SDS011;17813;0.000;0.000;2024-02-16T09:48:28;2.23;;;2.03;;
31182;SDS011;17813;0.000;0.000;2024-02-16T09:50:56;2.60;;;2.10;;
31182;SDS011;17813;0.000;0.000;2024-02-16T09:53:28;1.80;;;1.70;;
31182;SDS011;17813;0.000;0.000;2024-02-16T09:55:56;2.10;;;1.90;;
31182;SDS011;17813;0.000;0.000;2024-02-16T09:58:23;2.17;;;1.97;;
31182;SDS011;17813;0.000;0.000;2024-02-16T10:00:54;2.00;;;1.80;;
31182;SDS011;17813;0.000;0.000;2024-02-16T10:03:24;2.97;;;1.90;;
31182;SDS011;17813;0.000;0.000;2024-02-16T10:06:09;3.53;;;1.97;;
31182;SDS011;17813;0.000;0.000;2024-02-16T10:08:51;1.93;;;1.77;;
31182;SDS011;17813;0.000;0.000;2024-02-16T10:11:25;2.20;;;2.00;;
31182;SDS011;17813;0.000;0.000;2024-02-16T10:13:57;3.73;;;2.20;;
31182;SDS011;17813;0.000;0.000;2024-02-16T10:16:28;5.80;;;2.00;;
31182;SDS011;17813;0.000;0.000;2024-02-16T10:19:06;2.17;;;1.93;;
31182;SDS011;17813;0.000;0.000;2024-02-16T10:21:38;2.37;;;2.00;;
31182;SDS011;17813;0.000;0.000;2024-02-16T10:24:12;2.47;;;2.10;;
31182;SDS011;17813;0.000;0.000;2024-02-16T10:26:43;2.10;;;1.90;;
31182;SDS011;17813;0.000;0.000;2024-02-16T10:29:10;2.37;;;2.07;;
31182;SDS011;17813;0.000;0.000;2024-02-16T10:31:41;3.70;;;2.00;;
31182;SDS011;17813;0.000;0.000;2024-02-16T10:34:08;2.67;;;2.07;;
31182;SDS011;17813;0.000;0.000;2024-02-16T10:36:38;2.20;;;2.00;;
31182;SDS011;17813;0.000;0.000;2024-02-16T10:39:08;2.80;;;1.97;;
31182;SDS011;17813;0.000;0.000;2024-02-16T10:41:38;2.20;;;1.83;;
31182;SDS011;17813;0.000;0.000;2024-02-16T10:44:08;2.23;;;2.03;;
31182;SDS011;17813;0.000;0.000;2024-02-16T10:46:36;2.67;;;2.00;;
31182;SDS011;17813;0.000;0.000;2024-02-16T10:49:03;3.30;;;1.80;;
31182;SDS011;17813;0.000;0.000;2024-02-16T10:51:36;1.87;;;1.70;;
31182;SDS011;17813;0.000;0.000;2024-02-16T10:54:13;1.93;;;1.73;;
31182;SDS011;17813;0.000;0.000;2024-02-16T10:56:43;2.13;;;1.83;;
31182;SDS011;17813;0.000;0.000;2024-02-16T10:59:12;1.80;;;1.70;;
31182;SDS011;17813;0.000;0.000;2024-02-16T11:01:43;2.73;;;1.77;;
31182;SDS011;17813;0.000;0.000;2024-02-16T11:04:16;2.00;;;1.60;;
31182;SDS011;17813;0.000;0.000;2024-02-16T11:09:27;2.00;;;1.80;;
31182;SDS011;17813;0.000;0.000;2024-02-16T11:11:58;2.50;;;1.70;;
31182;SDS011;17813;0.000;0.000;2024-02-16T11:14:43;1.70;;;1.60;;
31182;SDS011;17813;0.000;0.000;2024-02-16T11:17:12;3.17;;;1.60;;
31182;SDS011;17813;0.000;0.000;2024-02-16T11:19:40;2.20;;;1.80;;
31182;SDS011;17813;0.000;0.000;2024-02-16T11:22:09;2.03;;;1.80;;
31182;SDS011;17813;0.000;0.000;2024-02-16T11:24:45;2.73;;;1.80;;
31182;SDS011;17813;0.000;0.000;2024-02-16T11:27:14;3.40;;;1.75;;
31182;SDS011;17813;0.000;0.000;2024-02-16T11:29:46;3.07;;;1.80;;
31182;SDS011;17813;0.000;0.000;2024-02-16T11:32:15;2.50;;;1.87;;
31182;SDS011;17813;0.000;0.000;2024-02-16T11:34:43;2.25;;;1.70;;
31182;SDS011;17813;0.000;0.000;2024-02-16T11:37:10;1.88;;;1.70;;
31182;SDS011;17813;0.000;0.000;2024-02-16T11:39:42;1.70;;;1.60;;
31182;SDS011;17813;0.000;0.000;2024-02-16T11:42:12;1.60;;;1.50;;
31182;SDS011;17813;0.000;0.000;2024-02-16T11:44:53;2.95;;;1.83;;
31182;SDS011;17813;0.000;0.000;2024-02-16T11:47:22;1.60;;;1.50;;
31182;SDS011;17813;0.000;0.000;2024-02-16T11:50:04;1.60;;;1.50;;
31182;SDS011;17813;0.000;0.000;2024-02-16T11:52:38;2.33;;;1.73;;
31182;SDS011;17813;0.000;0.000;2024-02-16T11:55:08;1.60;;;1.50;;
31182;SDS011;17813;0.000;0.000;2024-02-16T11:57:36;3.10;;;1.83;;
31182;SDS011;17813;0.000;0.000;2024-02-16T12:00:04;1.63;;;1.53;;
31182;SDS011;17813;0.000;0.000;2024-02-16T12:02:38;1.60;;;1.43;;
31182;SDS011;17813;0.000;0.000;2024-02-16T12:05:06;1.88;;;1.77;;
31182;SDS011;17813;0.000;0.000;2024-02-16T12:07:33;2.33;;;1.83;;
31182;SDS011;17813;0.000;0.000;2024-02-16T12:10:05;2.53;;;1.73;;
31182;SDS011;17813;0.000;0.000;2024-02-16T12:12:34;2.13;;;1.80;;
31182;SDS011;17813;0.000;0.000;2024-02-16T12:15:02;2.33;;;1.60;;
31182;SDS011;17813;0.000;0.000;2024-02-16T12:17:32;1.87;;;1.70;;
31182;SDS011;17813;0.000;0.000;2024-02-16T12:20:00;2.03;;;1.63;;
31182;SDS011;17813;0.000;0.000;2024-02-16T12:22:29;3.47;;;2.00;;
31182;SDS011;17813;0.000;0.000;2024-02-16T12:24:56;2.77;;;1.60;;
31182;SDS011;17813;0.000;0.000;2024-02-16T12:27:25;2.07;;;1.87;;
31182;SDS011;17813;0.000;0.000;2024-02-16T12:29:53;3.63;;;2.00;;
31182;SDS011;17813;0.000;0.000;2024-02-16T12:32:21;2.30;;;1.90;;
31182;SDS011;17813;0.000;0.000;2024-02-16T12:34:50;2.33;;;1.83;;
31182;SDS011;17813;0.000;0.000;2024-02-16T12:37:22;3.17;;;2.10;;
31182;SDS011;17813;0.000;0.000;2024-02-16T12:39:50;2.50;;;1.80;;
31182;SDS011;17813;0.000;0.000;2024-02-16T12:42:19;2.60;;;2.00;;
31182;SDS011;17813;0.000;0.000;2024-02-16T12:44:47;2.57;;;1.90;;
31182;SDS011;17813;0.000;0.000;2024-02-16T12:47:15;3.07;;;1.90;;
31182;SDS011;17813;0.000;0.000;2024-02-16T12:49:45;1.67;;;1.57;;
31182;SDS011;17813;0.000;0.000;2024-02-16T12:52:19;2.20;;;1.50;;
31182;SDS011;17813;0.000;0.000;2024-02-16T12:54:49;1.70;;;1.60;;
31182;SDS011;17813;0.000;0.000;2024-02-16T12:57:19;2.10;;;1.90;;
31182;SDS011;17813;0.000;0.000;2024-02-16T12:59:46;2.80;;;1.70;;
31182;SDS011;17813;0.000;0.000;2024-02-16T13:02:14;2.13;;;1.70;;
31182;SDS011;17813;0.000;0.000;2024-02-16T13:04:44;3.28;;;1.90;;
31182;SDS011;17813;0.000;0.000;2024-02-16T13:07:12;2.00;;;1.80;;
31182;SDS011;17813;0.000;0.000;2024-02-16T13:09:39;2.20;;;1.90;;
31182;SDS011;17813;0.000;0.000;2024-02-16T13:12:09;1.95;;;1.63;;
31182;SDS011;17813;0.000;0.000;2024-02-16T13:14:39;2.80;;;2.00;;
31182;SDS011;17813;0.000;0.000;2024-02-16T13:17:06;2.83;;;2.10;;
31182;SDS011;17813;0.000;0.000;2024-02-16T13:19:33;2.07;;;1.87;;
31182;SDS011;17813;0.000;0.000;2024-02-16T13:22:00;2.25;;;1.98;;
31182;SDS011;17813;0.000;0.000;2024-02-16T13:24:27;3.03;;;2.00;;
31182;SDS011;17813;0.000;0.000;2024-02-16T13:26:54;3.57;;;1.90;;
31182;SDS011;17813;0.000;0.000;2024-02-16T13:29:23;2.30;;;2.00;;
31182;SDS011;17813;0.000;0.000;2024-02-16T13:31:50;2.27;;;1.93;;
31182;SDS011;17813;0.000;0.000;2024-02-16T13:34:17;2.72;;;2.00;;
31182;SDS011;17813;0.000;0.000;2024-02-16T13:36:44;2.47;;;2.10;;
31182;SDS011;17813;0.000;0.000;2024-02-16T13:39:16;4.13;;;2.20;;
31182;SDS011;17813;0.000;0.000;2024-02-16T13:41:50;3.40;;;2.30;;
31182;SDS011;17813;0.000;0.000;2024-02-16T13:44:17;2.43;;;2.20;;
31182;SDS011;17813;0.000;0.000;2024-02-16T13:46:46;2.23;;;2.03;;
31182;SDS011;17813;0.000;0.000;2024-02-16T13:49:13;3.63;;;2.13;;
31182;SDS011;17813;0.000;0.000;2024-02-16T13:51:41;3.00;;;2.30;;
31182;SDS011;17813;0.000;0.000;2024-02-16T13:54:08;2.78;;;2.13;;
31182;SDS011;17813;0.000;0.000;2024-02-16T13:56:37;2.83;;;2.20;;
31182;SDS011;17813;0.000;0.000;2024-02-16T13:59:04;3.10;;;2.30;;
31182;SDS011;17813;0.000;0.000;2024-02-16T14:01:34;2.57;;;2.37;;
31182;SDS011;17813;0.000;0.000;2024-02-16T14:04:02;2.90;;;2.30;;
31182;SDS011;17813;0.000;0.000;2024-02-16T14:06:30;3.20;;;2.13;;
31182;SDS011;17813;0.000;0.000;2024-02-16T14:08:57;3.80;;;2.33;;
31182;SDS011;17813;0.000;0.000;2024-02-16T14:11:25;2.40;;;2.20;;
31182;SDS011;17813;0.000;0.000;2024-02-16T14:13:52;2.40;;;2.00;;
31182;SDS011;17813;0.000;0.000;2024-02-16T14:16:19;2.80;;;2.07;;
31182;SDS011;17813;0.000;0.000;2024-02-16T14:18:47;2.97;;;2.10;;
31182;SDS011;17813;0.000;0.000;2024-02-16T14:21:18;2.37;;;1.90;;
31182;SDS011;17813;0.000;0.000;2024-02-16T14:23:46;2.73;;;2.13;;
31182;SDS011;17813;0.000;0.000;2024-02-16T14:26:13;3.00;;;2.37;;
31182;SDS011;17813;0.000;0.000;2024-02-16T14:28:41;3.07;;;2.27;;
31182;SDS011;17813;0.000;0.000;2024-02-16T14:31:08;2.30;;;2.10;;
31182;SDS011;17813;0.000;0.000;2024-02-16T14:33:35;2.27;;;2.07;;
31182;SDS011;17813;0.000;0.000;2024-02-16T14:36:04;2.57;;;2.13;;
31182;SDS011;17813;0.000;0.000;2024-02-16T14:38:33;2.47;;;2.07;;
31182;SDS011;17813;0.000;0.000;2024-02-16T14:41:01;3.93;;;2.50;;
31182;SDS011;17813;0.000;0.000;2024-02-16T14:43:30;4.87;;;2.33;;
31182;SDS011;17813;0.000;0.000;2024-02-16T14:46:00;2.43;;;2.20;;
31182;SDS011;17813;0.000;0.000;2024-02-16T14:48:29;3.30;;;2.13;;
31182;SDS011;17813;0.000;0.000;2024-02-16T14:50:56;2.70;;;2.23;;
31182;SDS011;17813;0.000;0.000;2024-02-16T14:53:24;2.30;;;2.10;;
31182;SDS011;17813;0.000;0.000;2024-02-16T14:55:51;3.20;;;2.30;;
31182;SDS011;17813;0.000;0.000;2024-02-16T14:58:18;2.33;;;2.13;;
31182;SDS011;17813;0.000;0.000;2024-02-16T15:00:45;2.40;;;2.10;;
31182;SDS011;17813;0.000;0.000;2024-02-16T15:03:13;2.20;;;2.00;;
31182;SDS011;17813;0.000;0.000;2024-02-16T15:05:41;3.03;;;2.20;;
31182;SDS011;17813;0.000;0.000;2024-02-16T15:08:08;2.20;;;2.00;;
31182;SDS011;17813;0.000;0.000;2024-02-16T15:10:37;4.00;;;2.20;;
31182;SDS011;17813;0.000;0.000;2024-02-16T15:13:05;4.20;;;2.40;;